Weather reports worldwide

Advertisment
Grottaglie, Italy (16324): temperature & dewpoint: 19.09.2018 12:00:00 - 25.09.2018 12:00:00 (CEST)Grottaglie, Italy (16324): wind speed: 19.09.2018 12:00:00 - 25.09.2018 12:00:00 (CEST)Grottaglie, Italy (16324): wind direction: 19.09.2018 12:00:00 - 25.09.2018 12:00:00 (CEST)Grottaglie, Italy (16324): visibility: 19.09.2018 12:00:00 - 25.09.2018 12:00:00 (CEST)
Date & Time tt [°C] td [°C] ff [km/h] ff [kn] dd vv [km]
25.09.2018 12:00:00 - - - - - -
25.09.2018 11:00:00 21,0 5,0 34 18 N 10
25.09.2018 10:00:00 20,0 7,0 34 18 N 10
25.09.2018 09:00:00 20,0 8,0 28 15 N 10
25.09.2018 08:00:00 19,0 7,0 24 13 N 10
25.09.2018 07:00:00 - - - - - -
25.09.2018 06:00:00 - - - - - -
25.09.2018 05:00:00 - - - - - -
25.09.2018 04:00:00 - - - - - -
25.09.2018 03:00:00 - - - - - -
25.09.2018 02:00:00 - - - - - -
25.09.2018 01:00:00 - - - - - -
25.09.2018 00:00:00 - - - - - -
24.09.2018 23:00:00 - - - - - -
24.09.2018 22:00:00 - - - - - -
24.09.2018 21:00:00 - - - - - -
24.09.2018 20:00:00 25,0 18,0 8 4 NE 10
24.09.2018 19:00:00 26,0 17,0 16 9 NNE 10
24.09.2018 18:00:00 29,0 16,0 16 9 N 10
24.09.2018 17:00:00 28,0 17,0 16 9 NE 10
24.09.2018 16:00:00 29,0 16,0 22 12 NNE 10
24.09.2018 15:00:00 31,0 17,0 5 3 S 10
24.09.2018 14:00:00 30,0 17,0 5 3 WSW 10
24.09.2018 13:00:00 29,0 17,0 11 6 WSW 10
24.09.2018 12:00:00 28,0 17,0 13 7 WSW 10
24.09.2018 11:00:00 27,0 17,0 8 4 SW 10
24.09.2018 10:00:00 26,0 18,0 8 4 WSW 10
24.09.2018 09:00:00 24,0 19,0 0 0 N 10
24.09.2018 08:00:00 20,0 20,0 0 0 N 10
24.09.2018 07:00:00 - - - - - -
24.09.2018 06:00:00 - - - - - -
24.09.2018 05:00:00 - - - - - -
24.09.2018 04:00:00 - - - - - -
24.09.2018 03:00:00 - - - - - -
24.09.2018 02:00:00 - - - - - -
24.09.2018 01:00:00 - - - - - -
24.09.2018 00:00:00 - - - - - -
23.09.2018 23:00:00 - - - - - -
23.09.2018 22:00:00 - - - - - -
23.09.2018 21:00:00 - - - - - -
23.09.2018 20:00:00 24,0 18,0 5 3 WSW 10
23.09.2018 19:00:00 26,0 16,0 8 4 S 10
23.09.2018 18:00:00 28,0 16,0 9 5 S 10
23.09.2018 17:00:00 30,0 16,0 11 6 SW 10
23.09.2018 16:00:00 30,0 16,0 8 4 SW 10
23.09.2018 15:00:00 30,0 16,0 9 5 W 10
23.09.2018 14:00:00 29,0 19,0 13 7 WSW 10
23.09.2018 13:00:00 28,0 20,0 13 7 SW 10
23.09.2018 12:00:00 27,0 20,0 9 5 WSW 10
23.09.2018 11:00:00 27,0 20,0 8 4 SW 10
23.09.2018 10:00:00 25,0 21,0 4 2 W 10
23.09.2018 09:00:00 24,0 20,0 0 0 N 10
23.09.2018 08:00:00 21,0 18,0 0 0 N 10
23.09.2018 07:00:00 - - - - - -
23.09.2018 06:00:00 - - - - - -
23.09.2018 05:00:00 - - - - - -
23.09.2018 04:00:00 - - - - - -
23.09.2018 03:00:00 - - - - - -
23.09.2018 02:00:00 - - - - - -
23.09.2018 01:00:00 - - - - - -
23.09.2018 00:00:00 - - - - - -
22.09.2018 23:00:00 - - - - - -
22.09.2018 22:00:00 - - - - - -
22.09.2018 21:00:00 - - - - - -
22.09.2018 20:00:00 24,0 20,0 5 3 W 10
22.09.2018 19:00:00 25,0 19,0 8 4 - 10
22.09.2018 18:00:00 28,0 17,0 9 5 SW 10
22.09.2018 17:00:00 29,0 15,0 11 6 SSW 10
22.09.2018 16:00:00 29,0 17,0 11 6 SSW 10
22.09.2018 15:00:00 29,0 17,0 8 4 SW 10
22.09.2018 14:00:00 29,0 18,0 8 4 SW 10
22.09.2018 13:00:00 27,0 18,0 8 4 WSW 10
22.09.2018 12:00:00 27,0 18,0 0 0 N 10
22.09.2018 11:00:00 27,0 20,0 5 3 - 10
22.09.2018 10:00:00 26,0 21,0 0 0 N 10
22.09.2018 09:00:00 24,0 20,0 0 0 N 10
22.09.2018 08:00:00 20,0 19,0 0 0 N 10
22.09.2018 07:00:00 - - - - - -
22.09.2018 06:00:00 - - - - - -
22.09.2018 05:00:00 - - - - - -
22.09.2018 04:00:00 - - - - - -
22.09.2018 03:00:00 - - - - - -
22.09.2018 02:00:00 - - - - - -
22.09.2018 01:00:00 - - - - - -
22.09.2018 00:00:00 - - - - - -
21.09.2018 23:00:00 - - - - - -
21.09.2018 22:00:00 - - - - - -
21.09.2018 21:00:00 - - - - - -
21.09.2018 20:00:00 24,0 18,0 0 0 N 10
21.09.2018 19:00:00 26,0 18,0 9 5 S 10
21.09.2018 18:00:00 27,0 17,0 13 7 ESE 10
21.09.2018 17:00:00 26,0 18,0 26 14 E 10
21.09.2018 16:00:00 29,0 18,0 13 7 SW 10
21.09.2018 15:00:00 29,0 19,0 13 7 SSW 10
21.09.2018 14:00:00 29,0 18,0 11 6 SW 10
21.09.2018 13:00:00 29,0 16,0 8 4 SSE 10
21.09.2018 12:00:00 28,0 17,0 5 3 NNE 10
21.09.2018 11:00:00 27,0 19,0 0 0 N 10
21.09.2018 10:00:00 26,0 20,0 0 0 N 10
21.09.2018 09:00:00 23,0 20,0 0 0 N 10
21.09.2018 08:00:00 21,0 19,0 0 0 N 10
21.09.2018 07:00:00 - - - - - -
21.09.2018 06:00:00 - - - - - -
21.09.2018 05:00:00 - - - - - -
21.09.2018 04:00:00 - - - - - -
21.09.2018 03:00:00 - - - - - -
21.09.2018 02:00:00 - - - - - -
21.09.2018 01:00:00 - - - - - -
21.09.2018 00:00:00 - - - - - -
20.09.2018 23:00:00 - - - - - -
20.09.2018 22:00:00 23,0 20,0 13 7 N 10
20.09.2018 21:00:00 23,0 19,0 5 3 N 10
20.09.2018 20:00:00 23,0 19,0 8 4 N 10
20.09.2018 19:00:00 26,0 19,0 11 6 NNE 10
20.09.2018 18:00:00 - - - - - -
20.09.2018 17:00:00 28,0 19,0 16 9 NE 10
20.09.2018 16:00:00 29,0 19,0 16 9 N 10
20.09.2018 15:00:00 28,0 19,0 16 9 NNW 10
20.09.2018 14:00:00 29,0 17,0 8 4 ESE 10
20.09.2018 13:00:00 29,0 19,0 9 5 NE 10
20.09.2018 12:00:00 28,0 19,0 5 3 N 10
20.09.2018 11:00:00 27,0 18,0 5 3 N 10
20.09.2018 10:00:00 27,0 19,0 4 2 - 10
20.09.2018 09:00:00 25,0 20,0 0 0 N 10
20.09.2018 08:00:00 23,0 20,0 0 0 N 10
20.09.2018 07:00:00 - - - - - -
20.09.2018 06:00:00 - - - - - -
20.09.2018 05:00:00 - - - - - -
20.09.2018 04:00:00 - - - - - -
20.09.2018 03:00:00 - - - - - -
20.09.2018 02:00:00 - - - - - -
20.09.2018 01:00:00 - - - - - -
20.09.2018 00:00:00 - - - - - -
19.09.2018 23:00:00 - - - - - -
19.09.2018 22:00:00 - - - - - -
19.09.2018 21:00:00 - - - - - -
19.09.2018 20:00:00 26,0 15,0 5 3 - 10
19.09.2018 19:00:00 27,0 15,0 8 4 SE 10
19.09.2018 18:00:00 28,0 17,0 8 4 W 10
19.09.2018 17:00:00 30,0 17,0 8 4 WSW 10
19.09.2018 16:00:00 30,0 17,0 9 5 WSW 10
19.09.2018 15:00:00 29,0 18,0 13 7 W 10
19.09.2018 14:00:00 29,0 18,0 5 3 WSW 10
19.09.2018 13:00:00 28,0 19,0 8 4 WSW 10
19.09.2018 12:00:00 29,0 17,0 0 0 N 10

tt = temperature
td = dewpoint
ff = wind speed
dd = wind direction
vv = visibility

Next stations